Latest Weather Observations for PORTABLE BTSA (DFES)

IDW60801

Issued at 11:23 pm WST Tuesday 7 December 2021 (issued every 10 minutes, with the page automatically refreshed every 10 minutes)

About weather observations | Map of weather stations | Latest weather observations for WA | Other Formats
Station Details ID: 250109 Name: DFES PORTABLE AWS A Lat: -25.05 Lon: 115.21 Height: 173.0 m

Portable automatic weather stations (PAWS) are operated by other organisations, such as Fire and Emergency Services, and are included here by agreement. Portable stations may be deployed to a location for a short period and their location may be subject to change without notice. Wind observations from these stations are provided from heights of either three (3) or ten (10) metres above ground level (AGL).

Data from the previous 72 hours. | See also: Recent months for locations in Western Australia
Date/Time
WST
Temp
°C
App
Temp
°C
Dew
Point
°C
Rel
Hum
%
Delta-T
°C
Wind Press
QNH
hPa
Press
MSL
hPa
Rain since
9am
mm
Dir  Spd
km/h
Gust
km/h
Spd
kts
Gust
kts
07/11:10pm 25.4 25.0 18.1 64 4.6 WSW 17 19 9 10 - - 0.0
07/11:00pm 25.6 25.2 18.0 63 4.8 WSW 17 20 9 11 - - 0.0
07/10:50pm 25.9 25.1 18.0 61 5.0 WSW 19 22 10 12 - - 0.0
07/10:40pm 26.2 25.3 17.7 59 5.4 WSW 19 20 10 11 - - 0.0
07/10:30pm 26.5 25.9 17.5 57 5.7 WSW 17 20 9 11 - - 0.0
07/10:20pm 26.8 26.6 17.6 57 5.8 WSW 15 19 8 10 - - 0.0
07/10:10pm 27.0 27.1 17.4 55 6.1 WSW 13 15 7 8 - - 0.0
07/10:00pm 27.2 26.8 17.2 54 6.3 WSW 15 17 8 9 - - 0.0
07/09:50pm 27.5 27.1 17.2 53 6.5 WSW 15 17 8 9 - - 0.0
07/09:40pm 27.8 27.0 17.1 52 6.7 WSW 17 20 9 11 - - 0.0
07/09:30pm 28.2 27.7 17.0 50 7.1 WSW 15 17 8 9 - - 0.0
07/09:20pm 28.6 28.5 16.9 49 7.4 WSW 13 17 7 9 - - 0.0
07/09:10pm 28.8 27.6 17.0 49 7.5 W 19 20 10 11 - - 0.0
07/09:00pm 29.1 27.7 17.0 48 7.7 WSW 20 22 11 12 - - 0.0
07/08:50pm 29.6 28.2 17.0 46 8.0 WSW 20 22 11 12 - - 0.0
07/08:40pm 30.1 28.8 16.9 45 8.4 WSW 19 20 10 11 - - 0.0
07/08:30pm 30.5 29.2 16.8 43 8.7 WSW 19 20 10 11 - - 0.0
07/08:20pm 30.9 29.9 16.6 42 9.0 WSW 17 20 9 11 - - 0.0
07/08:10pm 31.3 30.0 16.8 41 9.2 WSW 19 20 10 11 - - 0.0
07/08:00pm 31.7 30.4 16.8 40 9.5 WSW 19 20 10 11 - - 0.0
07/07:50pm 32.0 31.0 16.7 40 9.7 WSW 17 20 9 11 - - 0.0
07/07:40pm 32.4 31.7 16.3 38 10.2 W 15 20 8 11 - - 0.0
07/07:30pm 32.7 31.5 16.2 37 10.4 WSW 17 19 9 10 - - 0.0
07/07:20pm 33.0 31.5 16.3 36 10.6 WSW 19 20 10 11 - - 0.0
07/07:10pm 33.4 32.2 16.1 35 11.0 WSW 17 19 9 10 - - 0.0
07/07:00pm 33.8 32.2 15.9 34 11.3 W 19 20 10 11 - - 0.0
07/06:50pm 34.3 32.9 15.6 32 11.8 WSW 17 20 9 11 - - 0.0
07/06:40pm 34.7 32.9 15.6 32 12.1 W 19 22 10 12 - - 0.0
07/06:30pm 35.5 33.7 15.5 30 12.6 W 19 20 10 11 - - 0.0
07/06:20pm 35.8 33.8 15.5 29 12.8 WSW 20 22 11 12 - - 0.0
07/06:10pm 36.5 34.7 15.6 29 13.3 W 19 20 10 11 - - 0.0
07/06:00pm 36.9 35.0 15.7 28 13.5 W 20 22 11 12 - - 0.0
07/05:50pm 37.1 34.9 15.9 28 13.5 WSW 22 24 12 13 - - 0.0
07/05:40pm 37.8 35.8 15.5 26 14.2 W 20 24 11 13 - - 0.0
07/05:30pm 38.2 35.7 15.2 25 14.6 W 22 24 12 13 - - 0.0
07/05:20pm 38.6 36.5 14.7 24 15.1 W 19 22 10 12 - - 0.0
07/05:10pm 39.0 36.9 15.3 24 15.1 W 20 24 11 13 - - 0.0
07/05:00pm 39.2 36.7 15.2 24 15.3 WSW 22 26 12 14 - - 0.0
07/04:50pm 39.6 37.6 14.9 23 15.7 W 19 24 10 13 - - 0.0
07/04:40pm 39.8 37.5 14.7 22 15.9 W 20 24 11 13 - - 0.0
07/04:30pm 40.0 37.6 13.9 21 16.4 W 19 22 10 12 - - 0.0
07/04:20pm 40.5 39.2 14.7 22 16.4 W 15 28 8 15 - - 0.0
07/04:10pm 40.3 37.4 12.4 19 17.2 W 19 22 10 12 - - 0.0
07/04:00pm 40.8 37.9 11.1 17 18.0 W 17 24 9 13 - - 0.0
07/03:50pm 40.8 38.2 12.0 18 17.7 W 17 20 9 11 - - 0.0
07/03:40pm 41.0 38.2 11.2 17 18.1 WNW 17 22 9 12 - - 0.0
07/03:30pm 41.1 38.8 11.8 17 17.9 W 15 28 8 15 - - 0.0
07/03:20pm 41.4 38.7 11.8 17 18.1 W 17 24 9 13 - - 0.0
07/03:10pm 41.0 38.7 11.9 17 17.8 WNW 15 19 8 10 - - 0.0
07/03:00pm 41.3 39.1 12.1 17 18.0 WNW 15 22 8 12 - - 0.0
07/02:50pm 41.1 38.4 11.8 17 17.9 WNW 17 19 9 10 - - 0.0
07/02:40pm 40.8 37.8 10.8 16 18.1 WNW 17 20 9 11 - - 0.0
07/02:30pm 41.0 38.5 12.4 18 17.6 W 17 24 9 13 - - 0.0
07/02:20pm 40.9 38.4 12.2 18 17.6 W 17 20 9 11 - - 0.0
07/02:10pm 40.7 38.4 13.0 19 17.2 W 17 20 9 11 - - 0.0
07/02:00pm 40.9 38.5 12.8 19 17.4 W 17 22 9 12 - - 0.0
07/01:50pm 41.1 39.1 12.8 18 17.6 W 15 24 8 13 - - 0.0
07/01:40pm 40.7 38.1 12.0 18 17.6 WNW 17 22 9 12 - - 0.0
07/01:30pm 41.0 38.6 12.6 18 17.6 W 17 26 9 14 - - 0.0
07/01:20pm 41.0 39.1 13.1 19 17.4 W 15 22 8 12 - - 0.0
07/01:10pm 40.3 37.3 11.9 18 17.4 W 19 20 10 11 - - 0.0
07/01:00pm 40.2 37.2 12.6 19 17.0 W 20 24 11 13 - - 0.0
07/12:50pm 40.2 37.8 12.5 19 17.1 W 17 22 9 12 - - 0.0
07/12:40pm 40.4 38.3 12.5 19 17.2 W 15 19 8 10 - - 0.0
07/12:30pm 39.9 38.0 13.0 20 16.7 W 15 20 8 11 - - 0.0
07/12:20pm 40.1 38.5 13.9 21 16.4 WNW 15 20 8 11 - - 0.0
07/12:10pm 39.9 38.1 12.1 19 17.0 WNW 13 17 7 9 - - 0.0
07/12:00pm 40.2 39.0 12.7 19 17.0 WNW 11 15 6 8 - - 0.0
07/11:50am 39.7 38.0 12.3 19 16.8 WNW 13 17 7 9 - - 0.0
07/11:40am 39.1 37.9 12.8 21 16.2 WNW 11 13 6 7 - - 0.0
07/11:30am 39.2 37.8 13.4 21 16.0 NW 13 17 7 9 - - 0.0
07/11:20am 39.0 38.1 13.7 22 15.8 NNW 11 15 6 8 - - 0.0
07/11:10am 38.5 37.7 13.9 23 15.4 NNW 11 15 6 8 - - 0.0
07/11:00am 37.8 37.6 14.7 25 14.5 NNW 9 15 5 8 - - 0.0
07/10:50am 36.7 38.1 16.5 30 13.0 WSW 4 6 2 3 - - 0.0
07/10:40am 35.6 36.6 16.4 32 12.3 SSE 6 9 3 5 - - 0.0
07/10:30am 35.1 36.4 17.5 35 11.4 WSW 7 11 4 6 - - 0.0
07/10:20am 34.7 36.6 17.7 36 11.1 NW 4 6 2 3 - - 0.0
07/10:10am 34.0 35.5 17.7 38 10.6 ESE 6 9 3 5 - - 0.0
07/10:00am 33.5 35.6 18.1 40 10.0 W 4 7 2 4 - - 0.0
07/09:50am 32.8 34.4 17.8 40 9.7 NNW 6 9 3 5 - - 0.0
07/09:40am 31.8 33.5 18.1 44 8.9 WSW 6 9 3 5 - - 0.0
07/09:30am 31.1 32.8 18.1 46 8.4 W 6 7 3 4 - - 0.0
07/09:20am 30.5 32.2 18.0 47 8.1 WNW 6 9 3 5 - - 0.0
07/09:10am 29.8 31.3 18.1 49 7.5 WNW 7 13 4 7 - - 0.0
07/09:00am 29.5 31.3 18.3 51 7.2 WSW 6 7 3 4 - - 0.0
07/08:50am 29.1 30.8 18.4 52 6.9 WNW 7 11 4 6 - - 0.0
07/08:40am 28.7 30.5 18.2 53 6.7 WNW 6 7 3 4 - - 0.0
07/08:30am 27.9 29.6 18.4 56 6.1 WNW 7 9 4 5 - - 0.0
07/08:20am 27.5 28.8 18.5 58 5.8 W 9 15 5 8 - - 0.0
07/08:10am 27.0 28.6 18.3 59 5.6 W 7 11 4 6 - - 0.0
07/08:00am 26.6 27.8 18.3 60 5.3 W 9 11 5 6 - - 0.0
07/07:50am 26.2 27.9 18.4 62 5.0 W 7 11 4 6 - - 0.0
07/07:40am 25.7 26.9 18.2 63 4.8 W 9 11 5 6 - - 0.0
07/07:30am 25.5 26.7 18.3 64 4.6 W 9 9 5 5 - - 0.0
07/07:20am 25.1 26.3 18.3 66 4.3 W 9 11 5 6 - - 0.0
07/07:10am 24.5 25.2 18.0 67 4.1 W 11 13 6 7 - - 0.0
07/07:00am 24.2 25.4 18.2 69 3.8 W 9 9 5 5 - - 0.0
07/06:50am 23.9 25.1 18.2 70 3.6 W 9 9 5 5 - - 0.0
07/06:40am 23.5 24.7 18.2 72 3.3 W 9 11 5 6 - - 0.0
07/06:30am 23.2 24.4 18.2 73 3.2 W 9 11 5 6 - - 0.0
07/06:20am 22.9 24.5 18.2 75 3.0 WNW 7 9 4 5 - - 0.0
07/06:10am 22.4 23.6 18.2 77 2.6 W 9 11 5 6 - - 0.0
07/06:00am 22.1 23.2 18.1 78 2.5 WNW 9 11 5 6 - - 0.0
07/05:50am 21.7 22.8 18.1 80 2.3 WNW 9 13 5 7 - - 0.0
07/05:40am 21.4 22.9 18.1 81 2.1 NW 7 11 4 6 - - 0.0
07/05:30am 21.2 22.3 18.1 82 1.9 NW 9 11 5 6 - - 0.0
07/05:20am 21.2 22.3 18.1 82 1.9 NW 9 13 5 7 - - 0.0
07/05:10am 21.2 22.4 18.2 83 1.9 WNW 9 11 5 6 - - 0.0
07/05:00am 21.1 21.9 18.1 83 1.9 WNW 11 13 6 7 - - 0.0
07/04:50am 21.1 22.2 18.1 83 1.9 WNW 9 11 5 6 - - 0.0
07/04:40am 21.1 22.2 18.1 83 1.9 WNW 9 11 5 6 - - 0.0
07/04:30am 21.1 22.6 18.1 83 1.9 WNW 7 7 4 4 - - 0.0
07/04:20am 21.2 22.9 18.1 82 1.9 NW 6 9 3 5 - - 0.0
07/04:10am 21.3 22.9 18.2 82 1.9 WNW 7 9 4 5 - - 0.0
07/04:00am 21.4 23.0 18.2 82 2.0 NW 7 9 4 5 - - 0.0
07/03:50am 21.6 22.4 18.2 81 2.1 NNW 11 15 6 8 - - 0.0
07/03:40am 21.7 22.9 18.2 80 2.2 NNW 9 11 5 6 - - 0.0
07/03:30am 21.7 23.5 18.2 80 2.2 WNW 6 9 3 5 - - 0.0
07/03:20am 21.7 23.3 18.3 81 2.1 W 7 13 4 7 - - 0.0
07/03:10am 21.8 22.2 18.2 80 2.3 WSW 13 15 7 8 - - 0.0
07/03:00am 21.9 22.7 18.2 79 2.3 WSW 11 13 6 7 - - 0.0
07/02:50am 22.1 22.9 18.2 78 2.5 WSW 11 13 6 7 - - 0.0
07/02:40am 22.1 22.9 18.1 78 2.5 WSW 11 15 6 8 - - 0.0
07/02:30am 22.2 23.3 18.1 77 2.6 WSW 9 11 5 6 - - 0.0
07/02:20am 22.2 23.7 18.1 77 2.6 SW 7 11 4 6 - - 0.0
07/02:10am 22.3 23.1 18.1 77 2.6 WSW 11 13 6 7 - - 0.0
07/02:00am 22.5 23.2 18.0 75 2.8 W 11 15 6 8 - - 0.0
07/01:50am 22.6 22.9 17.9 75 2.9 W 13 15 7 8 - - 0.0
07/01:40am 22.7 23.4 17.9 74 3.0 W 11 13 6 7 - - 0.0
07/01:30am 22.8 23.5 17.9 74 3.1 W 11 13 6 7 - - 0.0
07/01:20am 22.9 23.2 17.9 73 3.1 W 13 15 7 8 - - 0.0
07/01:10am 23.0 23.3 17.9 73 3.2 WSW 13 15 7 8 - - 0.0
07/01:00am 23.1 23.4 17.9 72 3.3 WSW 13 15 7 8 - - 0.0
07/12:50am 23.2 23.5 17.8 71 3.4 WSW 13 17 7 9 - - 0.0
07/12:40am 23.2 23.1 17.9 72 3.3 WSW 15 17 8 9 - - 0.0
07/12:30am 23.4 23.3 17.9 71 3.5 WSW 15 19 8 10 - - 0.0
07/12:20am 23.5 23.4 17.9 71 3.5 WSW 15 17 8 9 - - 0.0
07/12:10am 23.6 23.1 17.8 70 3.6 WSW 17 19 9 10 - - 0.0
07/12:00am 23.8 23.6 17.7 68 3.8 WSW 15 17 8 9 - - 0.0
 
Date/Time
WST
Temp
°C
App
Temp
°C
Dew
Point
°C
Rel
Hum
%
Delta-T
°C
Wind Press
QNH
hPa
Press
MSL
hPa
Rain since
9am
mm
Dir  Spd
km/h
Gust
km/h
Spd
kts
Gust
kts
06/11:50pm 23.9 23.4 17.8 68 3.8 WSW 17 19 9 10 - - 0.0
06/11:40pm 24.2 24.1 17.8 67 4.0 WSW 15 19 8 10 - - 0.0
06/11:30pm 24.4 23.8 17.6 66 4.3 WSW 17 19 9 10 - - 0.0
06/11:20pm 24.6 23.6 17.5 64 4.5 WSW 19 20 10 11 - - 0.0
06/11:10pm 24.9 24.2 17.4 63 4.7 WSW 17 20 9 11 - - 0.0
06/11:00pm 25.2 24.5 17.3 61 5.0 WSW 17 19 9 10 - - 0.0
06/10:50pm 25.4 24.3 17.3 61 5.1 WSW 19 22 10 12 - - 0.0
06/10:40pm 25.7 24.5 17.1 59 5.4 WSW 19 22 10 12 - - 0.0
06/10:30pm 26.0 24.8 17.0 57 5.6 WSW 19 22 10 12 - - 0.0
06/10:20pm 26.3 24.8 16.7 55 6.0 WSW 20 22 11 12 - - 0.0
06/10:10pm 26.8 25.1 16.3 52 6.5 WSW 20 20 11 11 - - 0.0
06/10:00pm 27.2 25.3 15.8 49 7.0 WSW 20 24 11 13 - - 0.0
06/09:50pm 27.8 25.0 15.4 46 7.6 WSW 24 28 13 15 - - 0.0
06/09:40pm 28.5 25.9 14.9 43 8.3 WSW 22 26 12 14 - - 0.0
06/09:30pm 29.2 27.5 14.7 41 8.9 WSW 17 22 9 12 - - 0.0
06/09:20pm 29.6 27.7 14.2 39 9.4 WSW 17 19 9 10 - - 0.0
06/09:10pm 29.9 28.3 14.0 37 9.6 WSW 15 17 8 9 - - 0.0
06/09:00pm 30.3 28.3 13.8 36 10.0 WSW 17 19 9 10 - - 0.0
06/08:50pm 30.7 28.6 13.7 35 10.3 WSW 17 20 9 11 - - 0.0
06/08:40pm 31.0 28.5 13.6 34 10.5 WSW 19 20 10 11 - - 0.0
06/08:30pm 31.3 29.2 13.5 33 10.8 WSW 17 19 9 10 - - 0.0
06/08:20pm 31.6 29.5 13.7 33 10.9 WSW 17 20 9 11 - - 0.0
06/08:10pm 31.8 30.0 14.4 34 10.7 WSW 17 20 9 11 - - 0.0
06/08:00pm 32.0 30.4 15.1 36 10.5 WSW 17 20 9 11 - - 0.0
06/07:50pm 32.4 30.5 15.2 35 10.7 WSW 19 22 10 12 - - 0.0
06/07:40pm 32.9 31.1 15.4 35 11.0 SW 19 20 10 11 - - 0.0
06/07:30pm 33.5 31.6 15.2 33 11.4 SW 19 22 10 12 - - 0.0
06/07:20pm 34.0 31.8 15.0 32 11.9 SW 20 24 11 13 - - 0.0
06/07:10pm 34.6 32.4 14.9 30 12.3 SW 20 24 11 13 - - 0.0
06/07:00pm 35.3 32.7 14.9 29 12.8 SW 22 26 12 14 - - 0.0
06/06:50pm 36.8 34.4 14.3 26 14.0 SW 20 24 11 13 - - 0.0
06/06:40pm 37.8 34.6 11.2 20 15.9 WSW 19 22 10 12 - - 0.0
06/06:30pm 38.7 35.0 10.1 18 16.9 WSW 20 22 11 12 - - 0.0
06/06:20pm 39.4 35.7 9.5 16 17.6 WSW 19 24 10 13 - - 0.0
06/06:10pm 39.9 36.3 9.9 16 17.8 WSW 19 20 10 11 - - 0.0
06/06:00pm 40.2 36.6 9.9 16 18.0 WSW 19 24 10 13 - - 0.0
06/05:50pm 40.8 37.6 9.9 15 18.4 WSW 17 20 9 11 - - 0.0
06/05:40pm 40.8 37.1 10.1 16 18.3 W 20 24 11 13 - - 0.0
06/05:30pm 41.5 37.9 10.0 15 18.8 W 19 22 10 12 - - 0.0
06/05:20pm 41.9 38.2 7.8 13 19.8 WSW 17 20 9 11 - - 0.0
06/05:10pm 41.9 38.6 8.0 13 19.7 WSW 15 19 8 10 - - 0.0
06/05:00pm 42.4 39.3 7.2 12 20.3 W 13 19 7 10 - - 0.0
06/04:50pm 42.6 38.9 6.1 11 20.7 WSW 15 20 8 11 - - 0.0
06/04:40pm 42.8 40.0 5.1 10 21.1 W 9 15 5 8 - - 0.0
06/04:30pm 43.0 38.8 3.6 9 21.6 W 15 20 8 11 - - 0.0
06/04:20pm 43.3 39.8 3.7 9 21.8 W 11 17 6 9 - - 0.0
06/04:10pm 42.8 38.8 3.0 9 21.7 WSW 13 19 7 10 - - 0.0
06/04:00pm 42.9 39.3 3.2 9 21.7 W 11 17 6 9 - - 0.0
06/03:50pm 43.0 39.5 3.5 9 21.7 W 11 15 6 8 - - 0.0
06/03:40pm 43.1 39.9 3.0 8 21.9 WSW 9 15 5 8 - - 0.0
06/03:30pm 43.0 39.3 4.5 9 21.4 W 13 19 7 10 - - 0.0
06/03:20pm 42.8 39.2 3.2 9 21.6 SW 11 17 6 9 - - 0.0
06/03:10pm 43.0 38.7 3.1 9 21.8 WSW 15 19 8 10 - - 0.0
06/03:00pm 43.1 39.6 3.6 9 21.7 SW 11 17 6 9 - - 0.0
06/02:50pm 43.7 40.6 3.4 8 22.2 NW 9 17 5 9 - - 0.0
06/02:40pm 43.3 39.1 1.8 8 22.3 W 13 19 7 10 - - 0.0
06/02:30pm 43.2 39.3 1.0 7 22.4 WSW 11 19 6 10 - - 0.0
06/02:20pm 43.0 38.8 1.7 8 22.1 W 13 19 7 10 - - 0.0
06/02:10pm 43.1 39.8 2.4 8 22.0 W 9 15 5 8 - - 0.0
06/02:00pm 42.9 40.1 5.1 10 21.2 WSW 9 15 5 8 - - 0.0
06/01:50pm 42.9 39.7 5.0 10 21.2 W 11 15 6 8 - - 0.0
06/01:40pm 42.8 40.1 7.4 12 20.5 WNW 11 15 6 8 - - 0.0
06/01:30pm 42.0 40.2 8.1 13 19.8 WSW 7 15 4 8 - - 0.0
06/01:20pm 42.1 39.8 8.9 13 19.6 W 11 19 6 10 - - 0.0
06/01:10pm 42.1 39.5 9.2 14 19.5 WSW 13 17 7 9 - - 0.0
06/01:00pm 41.5 39.3 9.2 14 19.1 SW 11 19 6 10 - - 0.0
06/12:50pm 41.7 39.6 9.8 15 19.0 W 11 15 6 8 - - 0.0
06/12:40pm 41.5 39.5 10.0 15 18.8 WSW 11 13 6 7 - - 0.0
06/12:30pm 41.4 40.1 10.0 15 18.8 SW 7 13 4 7 - - 0.0
06/12:20pm 41.1 39.6 10.4 16 18.4 WNW 9 11 5 6 - - 0.0
06/12:10pm 41.1 39.8 9.9 15 18.6 N 7 11 4 6 - - 0.0
06/12:00pm 41.2 39.2 8.7 14 19.1 N 9 13 5 7 - - 0.0
06/11:50am 40.9 38.9 7.0 13 19.4 ENE 7 15 4 8 - - 0.0
06/11:40am 40.6 38.8 7.8 14 18.9 N 7 11 4 6 - - 0.0
06/11:30am 39.8 38.4 9.4 16 17.9 WNW 7 9 4 5 - - 0.0
06/11:20am 39.9 38.9 11.1 18 17.4 WNW 7 11 4 6 - - 0.0
06/11:10am 39.4 38.7 11.5 19 16.9 NW 6 7 3 4 - - 0.0
06/11:00am 39.0 38.0 10.9 18 16.9 N 7 13 4 7 - - 0.0
06/10:50am 37.9 37.4 11.9 21 15.7 ENE 6 7 3 4 - - 0.0
06/10:40am 36.7 36.1 12.4 23 14.8 N 7 13 4 7 - - 0.0
06/10:30am 36.6 36.2 13.0 24 14.5 NNW 7 9 4 5 - - 0.0
06/10:20am 36.1 35.6 12.8 24 14.2 WNW 7 9 4 5 - - 0.0
06/10:10am 35.3 34.8 12.6 25 13.8 WNW 7 13 4 7 - - 0.0
06/10:00am 34.7 34.3 12.9 26 13.2 WNW 7 13 4 7 - - 0.0
06/09:50am 33.8 33.4 13.0 28 12.6 W 7 11 4 6 - - 0.0
06/09:40am 33.5 33.1 13.1 29 12.4 W 7 11 4 6 - - 0.0
06/09:30am 32.9 32.0 12.6 29 12.2 WNW 9 13 5 7 - - 0.0
06/09:20am 32.5 31.6 12.7 30 11.9 W 9 11 5 6 - - 0.0
06/09:10am 31.7 30.9 13.0 32 11.2 W 9 11 5 6 - - 0.0
06/09:00am 31.5 30.8 13.2 32 11.0 W 9 13 5 7 - - 0.0
06/08:50am 30.9 29.8 13.1 33 10.7 W 11 13 6 7 - - 0.0
06/08:40am 30.5 29.6 13.6 35 10.2 W 11 13 6 7 - - 0.0
06/08:30am 30.1 29.2 13.7 36 9.9 WSW 11 13 6 7 - - 0.0
06/08:20am 29.9 29.0 13.6 36 9.8 WSW 11 13 6 7 - - 0.0
06/08:10am 29.7 28.6 13.1 36 9.9 WSW 11 13 6 7 - - 0.0
06/08:00am 29.2 27.6 12.7 36 9.8 WSW 13 15 7 8 - - 0.0
06/07:50am 28.8 27.1 12.4 36 9.7 WSW 13 15 7 8 - - 0.0
06/07:40am 28.5 26.8 12.3 36 9.5 WSW 13 15 7 8 - - 0.0
06/07:30am 28.2 26.4 12.2 37 9.4 WSW 13 13 7 7 - - 0.0
06/07:20am 27.9 26.5 12.2 37 9.2 WSW 11 13 6 7 - - 0.0
06/07:10am 27.6 26.2 12.1 38 9.0 WSW 11 13 6 7 - - 0.0
06/07:00am 26.9 25.6 12.4 40 8.5 WSW 11 13 6 7 - - 0.0
06/06:50am 26.5 25.3 12.7 42 8.1 W 11 13 6 7 - - 0.0
06/06:40am 26.2 24.9 12.5 42 8.0 W 11 11 6 6 - - 0.0
06/06:30am 25.5 25.0 12.7 45 7.5 WSW 7 11 4 6 - - 0.0
06/06:20am 24.9 24.6 13.2 48 6.9 WSW 7 9 4 5 - - 0.0
06/06:10am 24.3 23.7 13.4 50 6.4 WSW 9 9 5 5 - - 0.0
06/06:00am 23.9 23.3 13.4 51 6.1 W 9 9 5 5 - - 0.0
06/05:50am 23.5 23.2 13.3 52 6.0 W 7 9 4 5 - - 0.0
06/05:40am 23.3 23.0 13.4 53 5.8 W 7 9 4 5 - - 0.0
06/05:30am 23.3 22.7 13.5 54 5.7 W 9 9 5 5 - - 0.0
06/05:20am 23.3 22.7 13.6 54 5.7 W 9 11 5 6 - - 0.0
06/05:10am 23.3 22.8 13.7 54 5.6 W 9 9 5 5 - - 0.0
06/05:00am 23.4 22.9 13.8 54 5.6 WSW 9 9 5 5 - - 0.0
06/04:50am 23.5 23.1 14.0 55 5.6 W 9 11 5 6 - - 0.0
06/04:40am 23.6 23.2 14.1 55 5.6 WSW 9 11 5 6 - - 0.0
06/04:30am 23.7 23.3 14.2 55 5.6 W 9 11 5 6 - - 0.0
06/04:20am 23.7 23.7 14.3 55 5.6 W 7 7 4 4 - - 0.0
06/04:10am 23.9 24.0 14.5 55 5.6 WSW 7 7 4 4 - - 0.0
06/04:00am 24.1 23.8 14.5 55 5.7 WSW 9 11 5 6 - - 0.0
06/03:50am 24.4 24.5 14.5 54 5.9 W 7 9 4 5 - - 0.0
06/03:40am 24.5 24.3 14.6 54 5.9 WSW 9 11 5 6 - - 0.0
06/03:30am 24.6 24.4 14.7 54 5.9 W 9 9 5 5 - - 0.0
06/03:20am 24.8 24.6 14.7 53 6.1 W 9 11 5 6 - - 0.0
06/03:10am 24.9 24.7 14.8 53 6.1 W 9 11 5 6 - - 0.0
06/03:00am 25.1 24.9 14.8 52 6.2 W 9 11 5 6 - - 0.0
06/02:50am 25.4 24.8 14.7 51 6.4 W 11 15 6 8 - - 0.0
06/02:40am 25.6 24.6 14.6 50 6.6 WSW 13 13 7 7 - - 0.0
06/02:30am 25.9 24.9 14.5 49 6.9 WSW 13 15 7 8 - - 0.0
06/02:20am 26.1 25.4 14.2 47 7.1 WSW 11 11 6 6 - - 0.0
06/02:10am 26.2 25.5 14.2 47 7.2 WSW 11 13 6 7 - - 0.0
06/02:00am 26.2 25.5 14.3 48 7.1 WSW 11 11 6 6 - - 0.0
06/01:50am 26.3 25.7 14.5 48 7.1 W 11 11 6 6 - - 0.0
06/01:40am 26.4 25.8 14.7 48 7.1 W 11 13 6 7 - - 0.0
06/01:30am 26.6 25.6 14.6 47 7.2 WSW 13 13 7 7 - - 0.0
06/01:20am 26.7 26.1 14.5 47 7.4 WSW 11 13 6 7 - - 0.0
06/01:10am 27.0 26.3 14.4 46 7.6 WSW 11 13 6 7 - - 0.0
06/01:00am 27.2 26.1 14.2 44 7.8 WSW 13 13 7 7 - - 0.0
06/12:50am 27.4 26.6 14.1 44 8.0 WSW 11 11 6 6 - - 0.0
06/12:40am 27.5 27.1 14.0 43 8.1 WSW 9 11 5 6 - - 0.0
06/12:30am 27.8 27.3 13.8 42 8.4 W 9 13 5 7 - - 0.0
06/12:20am 28.0 27.1 13.7 41 8.6 W 11 13 6 7 - - 0.0
06/12:10am 28.1 27.2 13.6 41 8.7 W 11 13 6 7 - - 0.0
06/12:00am 28.3 27.4 13.8 41 8.7 W 11 13 6 7 - - 0.0
 
Date/Time
WST
Temp
°C
App
Temp
°C
Dew
Point
°C
Rel
Hum
%
Delta-T
°C
Wind Press
QNH
hPa
Press
MSL
hPa
Rain since
9am
mm
Dir  Spd
km/h
Gust
km/h
Spd
kts
Gust
kts
05/11:50pm 28.6 27.7 13.8 40 8.9 W 11 13 6 7 - - 0.0
05/11:40pm 28.8 27.9 13.7 39 9.1 W 11 13 6 7 - - 0.0
05/11:30pm 29.0 28.1 13.8 39 9.2 W 11 13 6 7 - - 0.0
05/11:20pm 29.3 28.4 13.8 38 9.3 W 11 11 6 6 - - 0.0
05/11:10pm 29.5 28.6 13.8 38 9.5 W 11 11 6 6 - - 0.0
05/11:00pm 29.7 29.1 13.6 37 9.7 W 9 11 5 6 - - 0.0
05/10:50pm 30.0 29.3 13.2 35 10.1 W 9 11 5 6 - - 0.0
05/10:40pm 30.3 29.2 13.0 34 10.3 W 11 13 6 7 - - 0.0
05/10:30pm 30.6 29.4 12.9 33 10.6 W 11 13 6 7 - - 0.0
05/10:20pm 31.0 29.8 12.9 33 10.8 W 11 13 6 7 - - 0.0
05/10:10pm 31.2 30.0 12.9 32 11.0 W 11 13 6 7 - - 0.0
05/10:00pm 31.5 30.4 13.0 32 11.1 W 11 13 6 7 - - 0.0
05/09:50pm 31.9 30.2 12.6 30 11.5 WSW 13 13 7 7 - - 0.0
05/09:40pm 32.2 30.1 12.5 30 11.8 WSW 15 17 8 9 - - 0.0
05/09:30pm 32.6 30.7 11.9 28 12.3 WSW 13 17 7 9 - - 0.0
05/09:20pm 33.0 31.0 11.5 27 12.7 WSW 13 15 7 8 - - 0.0
05/09:10pm 33.2 31.6 11.6 26 12.8 W 11 13 6 7 - - 0.0
05/09:00pm 33.5 31.9 11.7 26 12.9 WSW 11 13 6 7 - - 0.0
05/08:50pm 33.8 31.9 11.9 26 13.1 WSW 13 15 7 8 - - 0.0
05/08:40pm 34.1 31.8 11.9 26 13.3 WSW 15 19 8 10 - - 0.0
05/08:30pm 34.4 32.2 12.0 25 13.4 WSW 15 17 8 9 - - 0.0
05/08:20pm 34.8 32.2 11.9 25 13.7 WSW 17 17 9 9 - - 0.0
05/08:10pm 35.1 32.5 12.1 25 13.8 WSW 17 19 9 10 - - 0.0
05/08:00pm 35.4 32.8 12.1 24 14.0 WSW 17 19 9 10 - - 0.0
05/07:50pm 35.7 32.7 11.9 23 14.3 WSW 19 19 10 10 - - 0.0
05/07:40pm 36.1 33.3 11.3 22 14.8 WSW 17 20 9 11 - - 0.0
05/07:30pm 36.5 32.9 10.0 20 15.5 WSW 19 20 10 11 - - 0.0
05/07:20pm 37.0 32.9 7.8 17 16.6 WSW 19 22 10 12 - - 0.0
05/07:10pm 37.3 32.9 7.4 16 16.9 WSW 20 22 11 12 - - 0.0
05/07:00pm 37.7 33.3 7.6 16 17.1 WSW 20 22 11 12 - - 0.0
05/06:50pm 38.1 33.5 8.1 16 17.2 WSW 22 26 12 14 - - 0.0
05/06:40pm 38.9 34.9 8.9 16 17.5 WSW 20 24 11 13 - - 0.0
05/06:30pm 39.9 36.1 9.9 16 17.8 WSW 20 22 11 12 - - 0.0
05/06:20pm 41.7 37.0 -1.8 6 21.9 W 13 15 7 8 - - 0.0
05/06:10pm 42.1 37.8 -2.0 6 22.2 W 11 15 6 8 - - 0.0
05/06:00pm 42.5 38.5 -2.2 6 22.5 W 9 13 5 7 - - 0.0
05/05:50pm 42.6 38.7 -1.7 6 22.5 W 9 13 5 7 - - 0.0
05/05:40pm 42.7 37.9 -2.3 6 22.7 WSW 13 17 7 9 - - 0.0
05/05:30pm 43.0 38.2 -2.5 6 22.9 W 13 19 7 10 - - 0.0
05/05:20pm 43.2 38.7 -2.9 5 23.1 W 11 17 6 9 - - 0.0
05/05:10pm 43.4 38.9 -3.1 5 23.2 W 11 15 6 8 - - 0.0
05/05:00pm 43.5 38.6 -3.6 5 23.4 WSW 13 19 7 10 - - 0.0
05/04:50pm 43.5 38.6 -3.8 5 23.4 SW 13 15 7 8 - - 0.0
05/04:40pm 43.6 39.0 -3.7 5 23.5 W 11 17 6 9 - - 0.0
05/04:30pm 44.1 39.6 -2.9 5 23.7 W 11 15 6 8 - - 0.0
05/04:20pm 43.6 39.5 -2.7 5 23.3 W 9 15 5 8 - - 0.0
05/04:10pm 44.0 39.9 -3.2 5 23.6 SW 9 15 5 8 - - 0.0
05/04:00pm 43.9 39.5 -2.7 5 23.5 W 11 15 6 8 - - 0.0
05/03:50pm 44.1 39.7 -2.5 5 23.6 W 11 15 6 8 - - 0.0
05/03:40pm 44.2 38.6 -3.1 5 23.7 W 17 20 9 11 - - 0.0
05/03:30pm 44.0 39.2 -2.5 5 23.5 WSW 13 15 7 8 - - 0.0
05/03:20pm 44.5 40.0 -3.3 5 24.0 W 11 17 6 9 - - 0.0
05/03:10pm 44.0 39.9 -3.0 5 23.6 S 9 17 5 9 - - 0.0
05/03:00pm 44.0 39.6 -2.6 5 23.5 W 11 17 6 9 - - 0.0
05/02:50pm 44.1 39.3 -2.3 5 23.6 WSW 13 17 7 9 - - 0.0
05/02:40pm 44.2 39.5 -2.0 6 23.6 WSW 13 15 7 8 - - 0.0
05/02:30pm 44.0 40.2 -1.1 6 23.3 S 9 17 5 9 - - 0.0
05/02:20pm 44.3 39.3 -1.4 6 23.5 W 15 17 8 9 - - 0.0
05/02:10pm 44.5 40.0 -0.4 6 23.5 W 13 19 7 10 - - 0.0
05/02:00pm 44.4 40.5 0.9 7 23.2 WSW 11 15 6 8 - - 0.0
05/01:50pm 43.4 39.2 1.9 8 22.3 SW 13 17 7 9 - - 0.0
05/01:40pm 43.6 40.7 2.5 8 22.3 W 7 13 4 7 - - 0.0
05/01:30pm 43.4 40.6 3.2 8 22.0 SSE 7 11 4 6 - - 0.0
05/01:20pm 43.9 40.9 2.3 8 22.5 WNW 7 11 4 6 - - 0.0
05/01:10pm 43.6 41.0 3.2 8 22.1 SSW 6 9 3 5 - - 0.0
05/01:00pm 43.4 40.7 3.6 9 21.9 NNE 7 11 4 6 - - 0.0
05/12:50pm 43.3 40.8 3.9 9 21.8 WNW 6 9 3 5 - - 0.0
05/12:40pm 43.1 40.1 4.0 9 21.6 W 9 15 5 8 - - 0.0
05/12:30pm 43.0 40.4 3.2 9 21.7 S 6 9 3 5 - - 0.0
05/12:20pm 42.4 40.0 4.4 10 21.1 SE 6 9 3 5 - - 0.0
05/12:10pm 42.1 39.1 4.3 10 20.9 W 9 13 5 7 - - 0.0
05/12:00pm 42.2 39.7 4.8 10 20.8 WNW 7 13 4 7 - - 0.0
05/11:50am 42.8 40.3 4.8 10 21.2 NNW 7 13 4 7 - - 0.0
05/11:40am 42.4 40.3 5.6 11 20.7 NE 6 9 3 5 - - 0.0
05/11:30am 41.8 39.7 5.9 11 20.3 N 6 9 3 5 - - 0.0
05/11:20am 40.9 38.5 6.8 12 19.4 NNE 9 15 5 8 - - 0.0
05/11:10am 40.7 38.8 7.7 13 19.0 NW 7 11 4 6 - - 0.0
05/11:00am 40.2 39.1 10.6 17 17.8 N 7 9 4 5 - - 0.0
05/10:50am 39.3 38.4 11.3 18 16.9 NW 7 9 4 5 - - 0.0
05/10:40am 39.0 38.6 12.9 21 16.1 NNW 7 11 4 6 - - 0.0
05/10:30am 38.5 38.2 13.4 22 15.6 NNW 7 11 4 6 - - 0.0
05/10:20am 38.0 38.1 13.9 24 15.0 N 6 7 3 4 - - 0.0
05/10:10am 36.8 36.9 14.5 26 14.0 NNW 7 11 4 6 - - 0.0
05/10:00am 36.9 36.9 14.1 25 14.2 N 7 11 4 6 - - 0.0
05/09:50am 35.8 36.3 15.0 29 13.1 NNW 6 7 3 4 - - 0.0
05/09:40am 35.5 36.1 15.3 30 12.7 NNE 6 7 3 4 - - 0.0
05/09:30am 35.0 35.6 15.3 30 12.4 N 6 7 3 4 - - 0.0
05/09:20am 34.1 35.8 16.1 34 11.4 W 2 4 1 2 - - 0.0
05/09:10am 33.3 34.6 16.2 36 10.8 NW 4 6 2 3 - - 0.0
05/09:00am 32.4 34.0 16.9 39 9.9 ENE 4 6 2 3 - - 0.0
05/08:50am 31.6 32.7 16.7 40 9.5 W 6 7 3 4 - - 0.0
05/08:40am 30.8 31.9 17.0 43 8.8 WSW 7 9 4 5 - - 0.0
05/08:30am 30.0 31.2 17.3 46 8.1 W 7 7 4 4 - - 0.0
05/08:20am 29.6 31.1 17.7 48 7.6 W 6 7 3 4 - - 0.0
05/08:10am 29.0 30.7 18.1 51 7.0 WNW 6 7 3 4 - - 0.0
05/08:00am 28.2 29.9 18.4 55 6.3 W 7 9 4 5 - - 0.0
05/07:50am 27.8 29.6 18.2 56 6.2 WNW 6 7 3 4 - - 0.0
05/07:40am 27.2 28.9 18.4 58 5.6 W 7 9 4 5 - - 0.0
05/07:30am 26.5 28.2 18.4 61 5.2 W 7 7 4 4 - - 0.0
05/07:20am 26.0 27.7 18.6 63 4.7 W 7 7 4 4 - - 0.0
05/07:10am 25.5 27.2 18.5 65 4.5 W 7 7 4 4 - - 0.0
05/07:00am 25.0 26.7 18.4 66 4.2 W 7 9 4 5 - - 0.0
05/06:50am 24.4 26.1 18.5 69 3.8 W 7 9 4 5 - - 0.0
05/06:40am 23.8 25.1 18.5 72 3.4 W 9 9 5 5 - - 0.0
05/06:30am 23.4 24.6 18.3 73 3.2 W 9 9 5 5 - - 0.0
05/06:20am 23.0 24.2 18.2 74 3.0 W 9 11 5 6 - - 0.0
05/06:10am 22.6 23.7 18.1 76 2.8 W 9 13 5 7 - - 0.0
05/06:00am 22.3 23.4 18.0 76 2.7 WSW 9 11 5 6 - - 0.0
05/05:50am 22.0 23.1 17.9 77 2.6 WSW 9 11 5 6 - - 0.0
05/05:40am 21.8 23.2 17.9 78 2.4 SW 7 9 4 5 - - 0.0
05/05:30am 21.7 23.1 17.9 79 2.4 SW 7 9 4 5 - - 0.0
05/05:20am 21.8 22.9 17.9 78 2.4 SW 9 9 5 5 - - 0.0
05/05:10am 21.9 23.3 17.8 77 2.6 SW 7 9 4 5 - - 0.0
05/05:00am 22.1 23.1 17.8 76 2.7 SSW 9 9 5 5 - - 0.0
05/04:50am 22.3 23.3 17.7 75 2.9 SSW 9 9 5 5 - - 0.0
05/04:40am 22.4 23.8 17.7 75 2.9 SSW 7 7 4 4 - - 0.0
05/04:30am 22.6 24.0 17.7 74 3.1 SW 7 7 4 4 - - 0.0
05/04:20am 22.7 24.1 17.8 74 3.1 SW 7 7 4 4 - - 0.0
05/04:10am 22.8 24.2 17.8 73 3.1 SW 7 9 4 5 - - 0.0
05/04:00am 23.0 24.4 17.7 72 3.3 SW 7 9 4 5 - - 0.0
05/03:50am 23.1 24.4 17.5 70 3.5 SW 7 9 4 5 - - 0.0
05/03:40am 23.2 24.4 17.4 70 3.6 WSW 7 9 4 5 - - 0.0
05/03:30am 23.4 24.8 17.3 68 3.8 SW 6 7 3 4 - - 0.0
05/03:20am 23.5 24.8 17.1 67 4.0 WSW 6 7 3 4 - - 0.0
05/03:10am 23.6 24.7 17.0 66 4.1 WSW 7 7 4 4 - - 0.0
05/03:00am 23.8 24.8 16.8 65 4.3 WSW 7 9 4 5 - - 0.0
05/02:50am 24.1 24.7 16.8 63 4.5 WSW 9 9 5 5 - - 0.0
05/02:40am 24.4 25.0 16.7 62 4.8 W 9 11 5 6 - - 0.0
05/02:30am 24.5 24.6 16.6 61 4.9 W 11 11 6 6 - - 0.0
05/02:20am 24.7 24.7 16.3 59 5.2 W 11 13 6 7 - - 0.0
05/02:10am 24.9 24.8 16.0 57 5.5 W 11 15 6 8 - - 0.0
05/02:00am 25.1 24.6 15.8 56 5.7 W 13 15 7 8 - - 0.0
05/01:50am 25.4 24.7 15.5 54 6.0 WSW 13 15 7 8 - - 0.0
05/01:40am 25.6 24.9 15.4 53 6.2 WSW 13 13 7 7 - - 0.0
05/01:30am 25.8 25.0 15.1 51 6.5 WSW 13 15 7 8 - - 0.0
05/01:20am 26.1 25.1 14.7 49 6.9 WSW 13 15 7 8 - - 0.0
05/01:10am 26.3 25.6 14.4 48 7.2 WSW 11 13 6 7 - - 0.0
05/01:00am 26.7 26.0 14.2 46 7.5 WSW 11 13 6 7 - - 0.0
05/12:50am 27.0 25.9 14.3 45 7.6 WSW 13 15 7 8 - - 0.0
05/12:40am 27.2 26.1 14.2 44 7.8 WSW 13 15 7 8 - - 0.0
05/12:30am 27.4 26.6 14.1 44 8.0 WSW 11 13 6 7 - - 0.0
05/12:20am 27.6 26.9 14.2 43 8.1 WSW 11 13 6 7 - - 0.0
05/12:10am 27.9 26.8 14.2 43 8.3 WSW 13 13 7 7 - - 0.0
05/12:00am 28.1 27.0 14.3 42 8.3 WSW 13 15 7 8 - - 0.0
 
Date/Time
WST
Temp
°C
App
Temp
°C
Dew
Point
°C
Rel
Hum
%
Delta-T
°C
Wind Press
QNH
hPa
Press
MSL
hPa
Rain since
9am
mm
Dir  Spd
km/h
Gust
km/h
Spd
kts
Gust
kts
04/11:50pm 28.3 27.6 14.3 42 8.5 W 11 13 6 7 - - 0.0
04/11:40pm 28.6 27.8 14.0 40 8.8 W 11 13 6 7 - - 0.0
04/11:30pm 28.8 27.9 13.8 39 9.0 W 11 11 6 6 - - 0.0

Other formats

Comma delimited format used in spreadsheet applications
http://www.bom.gov.au/fwo/IDW60801/IDW60801.99150.axf

JavaScript Object Notation format (JSON) in row-major order
http://www.bom.gov.au/fwo/IDW60801/IDW60801.99150.json

Data quality

Most of these data are generated automatically and are frequently updated. Quality checks on data are not normally performed. It is possible for incorrect values to appear. Refer to information at About Latest Weather Observations and please check the disclaimer before using these data.